createdAt,value
2019-04-14T00:02:44.677Z,6.70
2019-04-14T00:05:16.909Z,6.80
2019-04-14T00:07:47.160Z,6.80
2019-04-14T00:10:18.866Z,6.80
2019-04-14T00:12:49.258Z,6.80
2019-04-14T00:15:29.349Z,6.80
2019-04-14T00:17:50.804Z,6.80
2019-04-14T00:20:22.846Z,6.80
2019-04-14T00:22:53.404Z,6.80
2019-04-14T00:25:23.814Z,6.80
2019-04-14T00:27:54.352Z,6.80
2019-04-14T00:30:25.176Z,6.80
2019-04-14T00:32:57.962Z,6.80
2019-04-14T00:35:49.934Z,6.80
2019-04-14T00:38:23.963Z,6.80
2019-04-14T00:41:33.805Z,6.70
2019-04-14T00:44:21.031Z,6.70
2019-04-14T00:46:55.962Z,6.70
2019-04-14T00:49:26.777Z,6.80
2019-04-14T00:51:57.098Z,6.70
2019-04-14T00:54:28.186Z,6.70
2019-04-14T00:56:58.503Z,6.60
2019-04-14T00:59:31.222Z,6.60
2019-04-14T01:02:01.326Z,6.60
2019-04-14T01:04:31.632Z,6.60
2019-04-14T01:07:02.236Z,6.70
2019-04-14T01:09:32.673Z,6.70
2019-04-14T01:12:03.788Z,6.70
2019-04-14T01:14:34.219Z,6.70
2019-04-14T01:17:04.795Z,6.70
2019-04-14T01:19:35.220Z,6.80
2019-04-14T01:22:05.373Z,6.70
2019-04-14T01:24:35.963Z,6.60
2019-04-14T01:27:06.087Z,6.60
2019-04-14T01:29:36.290Z,6.60
2019-04-14T01:32:06.607Z,6.60
2019-04-14T01:34:37.029Z,6.60
2019-04-14T01:37:07.281Z,6.60
2019-04-14T01:39:37.241Z,6.60
2019-04-14T01:42:07.174Z,6.60
2019-04-14T01:44:37.355Z,6.60
2019-04-14T01:47:07.407Z,6.60
2019-04-14T01:49:37.635Z,6.60
2019-04-14T01:52:18.847Z,6.60
2019-04-14T01:55:06.943Z,6.70
2019-04-14T01:58:06.040Z,6.70
2019-04-14T02:01:04.148Z,6.60
2019-04-14T02:03:34.523Z,6.60
2019-04-14T02:06:04.823Z,6.60
2019-04-14T02:08:35.195Z,6.60
2019-04-14T02:11:05.300Z,6.60
2019-04-14T02:13:35.418Z,6.60
2019-04-14T02:16:15.128Z,6.60
2019-04-14T02:18:38.316Z,6.60
2019-04-14T02:21:09.134Z,6.50
2019-04-14T02:23:39.064Z,6.50
2019-04-14T02:26:09.225Z,6.40
2019-04-14T02:28:39.684Z,6.50
2019-04-14T02:31:24.595Z,6.50
2019-04-14T02:34:07.520Z,6.40
2019-04-14T02:36:41.554Z,6.30
2019-04-14T02:39:13.966Z,6.30
2019-04-14T02:41:49.261Z,6.30
2019-04-14T02:44:34.298Z,6.20
2019-04-14T02:49:11.186Z,6.30
2019-04-14T02:51:49.670Z,6.30
2019-04-14T02:54:32.923Z,6.30
2019-04-14T02:56:58.433Z,6.40
2019-04-14T02:59:19.758Z,6.40
2019-04-14T03:02:09.785Z,6.30
2019-04-14T03:04:27.700Z,6.20
2019-04-14T03:06:56.360Z,6.20
2019-04-14T03:09:38.203Z,6.20
2019-04-14T03:12:01.348Z,6.30
2019-04-14T03:14:39.115Z,6.30
2019-04-14T03:20:16.821Z,6.20
2019-04-14T03:22:43.807Z,6.20
2019-04-14T03:25:30.176Z,6.20
2019-04-14T03:36:44.100Z,6.20
2019-04-14T03:38:52.953Z,6.20
2019-04-14T03:43:43.131Z,6.20
2019-04-14T03:46:25.380Z,6.20
2019-04-14T03:49:01.212Z,6.10
2019-04-14T03:51:34.674Z,6.10
2019-04-14T03:54:03.112Z,6.10
2019-04-14T03:56:36.456Z,6.00
2019-04-14T03:59:06.712Z,5.90
2019-04-14T04:01:36.825Z,5.90
2019-04-14T04:04:07.507Z,5.90
2019-04-14T04:06:37.828Z,5.90
2019-04-14T04:09:10.435Z,5.90
2019-04-14T04:11:41.187Z,5.90
2019-04-14T04:14:13.956Z,5.90
2019-04-14T04:16:53.130Z,5.90
2019-04-14T04:19:35.959Z,5.90
2019-04-14T04:22:43.445Z,5.90
2019-04-14T04:25:27.332Z,5.90
2019-04-14T04:28:16.706Z,5.90
2019-04-14T04:30:51.915Z,5.90
2019-04-14T04:33:30.580Z,5.90
2019-04-14T04:36:03.252Z,5.90
2019-04-14T04:38:44.346Z,5.80
2019-04-14T04:41:14.713Z,5.90
2019-04-14T04:43:45.154Z,5.90
2019-04-14T04:46:15.612Z,5.80
2019-04-14T04:48:57.973Z,5.90
2019-04-14T04:51:18.189Z,5.90
2019-04-14T04:53:48.339Z,6.00
2019-04-14T04:56:18.691Z,6.00
2019-04-14T04:58:48.752Z,6.00
2019-04-14T05:01:18.831Z,6.00
2019-04-14T05:03:49.290Z,6.10
2019-04-14T05:07:08.057Z,6.10
2019-04-14T05:09:55.589Z,6.20
2019-04-14T05:12:56.778Z,6.10
2019-04-14T05:15:44.583Z,6.10
2019-04-14T05:18:33.633Z,6.20
2019-04-14T05:21:04.230Z,6.10
2019-04-14T05:23:34.477Z,6.10
2019-04-14T05:26:04.881Z,6.00
2019-04-14T05:28:35.290Z,6.00
2019-04-14T05:31:05.483Z,6.00
2019-04-14T05:33:36.825Z,6.10
2019-04-14T05:36:07.029Z,6.20
2019-04-14T05:38:39.297Z,6.20
2019-04-14T05:41:09.264Z,6.20
2019-04-14T05:43:48.180Z,6.20
2019-04-14T05:46:11.975Z,6.30
2019-04-14T05:48:42.508Z,6.30
2019-04-14T05:51:13.747Z,6.20
2019-04-14T05:53:43.873Z,6.20
2019-04-14T05:56:35.841Z,6.20
2019-04-14T05:59:04.761Z,6.20
2019-04-14T06:01:34.645Z,6.20
2019-04-14T06:04:07.185Z,6.30
2019-04-14T06:06:37.804Z,6.20
2019-04-14T06:09:09.408Z,6.20
2019-04-14T06:11:39.326Z,6.20
2019-04-14T06:14:09.315Z,6.20
2019-04-14T06:16:39.255Z,6.10
2019-04-14T06:19:10.437Z,6.10
2019-04-14T06:21:40.612Z,6.10
2019-04-14T06:24:10.630Z,6.10
2019-04-14T06:26:40.550Z,6.20
2019-04-14T06:29:10.607Z,6.20
2019-04-14T06:32:08.235Z,6.20
2019-04-14T06:34:47.963Z,6.20
2019-04-14T06:37:24.556Z,6.20
2019-04-14T06:39:54.473Z,6.30
2019-04-14T06:42:24.363Z,6.30
2019-04-14T06:44:54.343Z,6.20
2019-04-14T06:47:24.233Z,6.20
2019-04-14T06:49:54.163Z,6.20
2019-04-14T06:52:24.067Z,6.20
2019-04-14T06:54:54.049Z,6.30
2019-04-14T06:57:23.995Z,6.40
2019-04-14T06:59:53.892Z,6.60
2019-04-14T07:02:23.791Z,6.60
2019-04-14T07:04:53.714Z,6.70
2019-04-14T07:07:23.603Z,6.60
2019-04-14T07:09:53.449Z,6.70
2019-04-14T07:12:23.239Z,6.60
2019-04-14T07:14:53.163Z,6.60
2019-04-14T07:17:23.078Z,6.60
2019-04-14T07:20:01.905Z,6.60
2019-04-14T07:22:24.572Z,6.60
2019-04-14T07:24:56.673Z,6.60
2019-04-14T07:27:26.564Z,6.60
2019-04-14T07:30:02.011Z,6.60
2019-04-14T07:32:50.744Z,6.60
2019-04-14T07:35:48.237Z,6.60
2019-04-14T07:38:25.625Z,6.60
2019-04-14T07:41:10.881Z,6.60
2019-04-14T07:44:02.670Z,6.60
2019-04-14T07:46:55.051Z,6.70
2019-04-14T07:49:43.770Z,6.70
2019-04-14T07:52:44.463Z,6.80
2019-04-14T07:55:21.279Z,6.90
2019-04-14T07:58:19.600Z,6.90
2019-04-14T08:00:56.065Z,6.80
2019-04-14T08:03:33.484Z,6.80
2019-04-14T08:06:03.817Z,6.80
2019-04-14T08:08:35.036Z,6.80
2019-04-14T08:11:07.698Z,6.80
2019-04-14T08:13:37.729Z,6.80
2019-04-14T08:16:09.281Z,6.80
2019-04-14T08:18:39.686Z,6.80
2019-04-14T08:21:17.668Z,6.80
2019-04-14T08:23:50.367Z,6.80
2019-04-14T08:26:20.299Z,6.90
2019-04-14T08:28:50.279Z,6.90
2019-04-14T08:31:20.192Z,7.00
2019-04-14T08:33:51.127Z,7.00
2019-04-14T08:36:21.055Z,7.10
2019-04-14T08:38:50.966Z,7.10
2019-04-14T08:41:21.258Z,7.20
2019-04-14T08:44:09.996Z,7.30
2019-04-14T08:47:01.600Z,7.30
2019-04-14T08:49:40.535Z,7.30
2019-04-14T08:52:15.967Z,7.30
2019-04-14T08:55:01.214Z,7.40
2019-04-14T08:57:48.605Z,7.50
2019-04-14T09:00:26.040Z,7.50
2019-04-14T09:03:13.426Z,7.50
2019-04-14T09:06:05.040Z,7.30
2019-04-14T09:08:43.335Z,7.30
2019-04-14T09:11:13.189Z,7.20
2019-04-14T09:13:43.295Z,7.10
2019-04-14T09:16:13.259Z,7.00
2019-04-14T09:18:43.286Z,7.00
2019-04-14T09:21:13.278Z,6.90
2019-04-14T09:23:43.455Z,7.00
2019-04-14T09:26:13.416Z,6.90
2019-04-14T09:28:43.388Z,6.80
2019-04-14T09:31:13.318Z,6.90
2019-04-14T09:34:13.570Z,6.90
2019-04-14T09:36:45.139Z,7.10
2019-04-14T09:39:26.661Z,7.20
2019-04-14T09:41:56.520Z,7.30
2019-04-14T09:44:29.455Z,7.30
2019-04-14T09:47:01.609Z,7.50
2019-04-14T09:49:31.502Z,7.60
2019-04-14T09:52:01.361Z,7.60
2019-04-14T09:54:34.486Z,7.60
2019-04-14T09:57:04.411Z,7.60
2019-04-14T09:59:34.230Z,7.80
2019-04-14T10:02:04.095Z,7.90
2019-04-14T10:04:34.022Z,8.10
2019-04-14T10:07:03.959Z,8.10
2019-04-14T10:09:33.834Z,8.10
2019-04-14T10:12:03.659Z,8.20
2019-04-14T10:14:33.495Z,8.40
2019-04-14T10:17:03.426Z,8.70
2019-04-14T10:19:37.114Z,9.00
2019-04-14T10:22:06.955Z,9.00
2019-04-14T10:24:36.734Z,9.00
2019-04-14T10:27:06.655Z,9.00
2019-04-14T10:29:40.011Z,8.80
2019-04-14T10:32:09.827Z,8.80
2019-04-14T10:34:39.653Z,8.80
2019-04-14T10:37:09.531Z,8.80
2019-04-14T10:39:39.368Z,9.00
2019-04-14T10:42:09.304Z,9.10
2019-04-14T10:44:39.321Z,9.20
2019-04-14T10:47:09.179Z,9.40
2019-04-14T10:49:39.376Z,9.50
2019-04-14T10:52:09.347Z,9.70
2019-04-14T10:54:39.368Z,9.80
2019-04-14T10:57:15.517Z,9.90
2019-04-14T10:59:53.830Z,9.90
2019-04-14T11:02:23.842Z,9.90
2019-04-14T11:04:56.953Z,9.90
2019-04-14T11:07:31.834Z,9.90
2019-04-14T11:10:02.284Z,9.90
2019-04-14T11:12:34.475Z,10.00
2019-04-14T11:15:21.235Z,9.80
2019-04-14T11:17:53.071Z,9.50
2019-04-14T11:20:28.912Z,9.30
2019-04-14T11:23:03.565Z,9.20
2019-04-14T11:25:34.778Z,9.20
2019-04-14T11:28:06.331Z,9.40
2019-04-14T11:30:40.839Z,9.60
2019-04-14T11:33:19.655Z,9.80
2019-04-14T11:36:04.430Z,9.90
2019-04-14T11:38:41.267Z,10.00
2019-04-14T11:41:15.178Z,9.90
2019-04-14T11:43:45.487Z,9.90
2019-04-14T11:46:15.798Z,9.80
2019-04-14T11:48:46.095Z,9.70
2019-04-14T11:51:16.217Z,9.70
2019-04-14T11:53:48.518Z,9.70
2019-04-14T11:56:19.354Z,9.80
2019-04-14T11:58:51.039Z,10.00
2019-04-14T12:01:43.048Z,10.00
2019-04-14T12:04:45.033Z,10.10
2019-04-14T12:07:40.262Z,10.00
2019-04-14T12:10:13.236Z,10.00
2019-04-14T12:12:43.632Z,10.00
2019-04-14T12:15:16.671Z,10.00
2019-04-14T12:17:45.671Z,10.10
2019-04-14T12:20:15.855Z,10.20
2019-04-14T12:22:45.900Z,10.30
2019-04-14T12:25:15.979Z,10.30
2019-04-14T12:27:48.763Z,10.40
2019-04-14T12:30:20.176Z,10.30
2019-04-14T12:32:50.354Z,10.40
2019-04-14T12:35:22.887Z,10.40
2019-04-14T12:37:54.258Z,10.40
2019-04-14T12:40:27.248Z,10.30
2019-04-14T12:43:19.211Z,10.10
2019-04-14T12:46:24.812Z,10.10
2019-04-14T12:48:58.745Z,10.10
2019-04-14T12:51:36.192Z,10.30
2019-04-14T12:54:06.328Z,10.30
2019-04-14T12:56:37.319Z,10.30
2019-04-14T12:59:19.629Z,10.20
2019-04-14T13:02:10.882Z,10.30
2019-04-14T13:04:39.543Z,10.40
2019-04-14T13:07:09.440Z,10.60
2019-04-14T13:09:39.435Z,10.80
2019-04-14T13:12:10.465Z,11.00
2019-04-14T13:14:40.825Z,11.20
2019-04-14T13:17:10.805Z,11.40
2019-04-14T13:19:40.852Z,11.60
2019-04-14T13:22:10.754Z,11.60
2019-04-14T13:24:42.867Z,11.60
2019-04-14T13:27:24.865Z,11.70
2019-04-14T13:29:59.420Z,11.80
2019-04-14T13:32:36.306Z,11.90
2019-04-14T13:35:04.103Z,12.00
2019-04-14T13:37:34.047Z,12.00
2019-04-14T13:40:05.880Z,11.90
2019-04-14T13:42:35.692Z,11.90
2019-04-14T13:45:08.660Z,11.90
2019-04-14T13:47:38.580Z,11.80
2019-04-14T13:50:08.835Z,11.70
2019-04-14T13:52:46.714Z,11.70
2019-04-14T13:55:10.379Z,11.60
2019-04-14T13:57:40.219Z,11.60
2019-04-14T14:00:11.843Z,11.30
2019-04-14T14:02:41.780Z,11.20
2019-04-14T14:05:11.942Z,11.00
2019-04-14T14:07:41.868Z,10.90
2019-04-14T14:10:12.183Z,10.80
2019-04-14T14:12:51.407Z,10.70
2019-04-14T14:15:43.261Z,10.60
2019-04-14T14:18:30.839Z,10.40
2019-04-14T14:21:18.154Z,10.30
2019-04-14T14:23:56.574Z,10.20
2019-04-14T14:26:27.579Z,10.20
2019-04-14T14:28:57.345Z,10.20
2019-04-14T14:31:27.182Z,10.20
2019-04-14T14:33:57.036Z,10.20
2019-04-14T14:36:26.914Z,10.20
2019-04-14T14:38:56.959Z,10.20
2019-04-14T14:41:26.819Z,10.10
2019-04-14T14:43:56.719Z,10.10
2019-04-14T14:47:00.812Z,10.10
2019-04-14T14:49:52.504Z,10.20
2019-04-14T14:52:22.868Z,10.20
2019-04-14T14:54:52.696Z,10.30
2019-04-14T14:57:23.089Z,10.40
2019-04-14T14:59:52.961Z,10.40
2019-04-14T15:02:22.834Z,10.50
2019-04-14T15:04:52.705Z,10.50
2019-04-14T15:07:22.545Z,10.60
2019-04-14T15:09:52.387Z,10.60
2019-04-14T15:12:22.311Z,10.70
2019-04-14T15:14:52.139Z,10.70
2019-04-14T15:17:22.009Z,10.70
2019-04-14T15:19:51.813Z,10.70
2019-04-14T15:22:21.653Z,10.70
2019-04-14T15:24:51.415Z,10.60
2019-04-14T15:27:33.937Z,10.60
2019-04-14T15:30:01.078Z,10.60
2019-04-14T15:32:33.504Z,10.70
2019-04-14T15:35:03.432Z,10.70
2019-04-14T15:37:33.233Z,10.70
2019-04-14T15:40:03.229Z,10.90
2019-04-14T15:42:33.025Z,11.00
2019-04-14T15:45:03.093Z,11.10
2019-04-14T15:47:33.158Z,11.00
2019-04-14T15:50:04.423Z,11.00
2019-04-14T15:52:34.335Z,11.00
2019-04-14T15:55:07.605Z,11.10
2019-04-14T15:58:06.350Z,11.10
2019-04-14T16:01:04.280Z,11.00
2019-04-14T16:03:58.815Z,11.00
2019-04-14T16:06:43.678Z,11.00
2019-04-14T16:09:47.658Z,11.00
2019-04-14T16:12:31.475Z,11.00
2019-04-14T16:15:17.116Z,11.00
2019-04-14T16:18:10.494Z,11.10
2019-04-14T16:20:42.315Z,11.00
2019-04-14T16:23:12.135Z,10.90
2019-04-14T16:26:00.878Z,10.90
2019-04-14T16:28:45.520Z,10.80
2019-04-14T16:31:32.837Z,10.80
2019-04-14T16:34:12.032Z,10.90
2019-04-14T16:36:43.172Z,10.90
2019-04-14T16:39:13.012Z,10.90
2019-04-14T16:41:42.883Z,10.90
2019-04-14T16:44:12.761Z,10.80
2019-04-14T16:46:42.555Z,10.70
2019-04-14T16:49:12.291Z,10.60
2019-04-14T16:51:47.682Z,10.40
2019-04-14T16:54:30.145Z,10.30
2019-04-14T16:57:18.792Z,10.20
2019-04-14T16:59:48.636Z,10.10
2019-04-14T17:02:18.420Z,9.90
2019-04-14T17:04:48.282Z,9.90
2019-04-14T17:07:21.253Z,9.80
2019-04-14T17:09:51.433Z,9.70
2019-04-14T17:12:21.275Z,9.70
2019-04-14T17:15:00.666Z,9.70
2019-04-14T17:17:39.894Z,9.70
2019-04-14T17:20:18.519Z,9.70
2019-04-14T17:23:01.203Z,9.70
2019-04-14T17:25:37.548Z,9.60
2019-04-14T17:28:44.606Z,9.70
2019-04-14T17:31:28.358Z,9.60
2019-04-14T17:34:10.003Z,9.50
2019-04-14T17:37:07.684Z,9.50
2019-04-14T17:39:43.430Z,9.50
2019-04-14T17:42:23.939Z,9.50
2019-04-14T17:45:06.878Z,9.40
2019-04-14T17:48:07.621Z,9.40
2019-04-14T17:50:54.860Z,9.30
2019-04-14T17:53:46.319Z,9.20
2019-04-14T17:56:20.431Z,9.10
2019-04-14T17:59:15.150Z,9.00
2019-04-14T18:02:01.535Z,9.00
2019-04-14T18:05:02.427Z,9.00
2019-04-14T18:07:37.075Z,8.90
2019-04-14T18:10:31.035Z,8.90
2019-04-14T18:13:11.584Z,8.90
2019-04-14T18:16:03.030Z,8.90
2019-04-14T18:18:40.673Z,8.90
2019-04-14T18:21:11.154Z,9.00
2019-04-14T18:23:41.002Z,9.00
2019-04-14T18:26:10.867Z,9.00
2019-04-14T18:29:02.525Z,9.00
2019-04-14T18:31:57.427Z,9.00
2019-04-14T18:34:55.140Z,9.00
2019-04-14T18:37:49.908Z,9.00
2019-04-14T18:40:34.342Z,8.90
2019-04-14T18:43:12.990Z,8.90
2019-04-14T18:45:50.325Z,8.90
2019-04-14T18:48:41.885Z,9.00
2019-04-14T18:51:24.704Z,9.00
2019-04-14T18:54:00.382Z,9.10
2019-04-14T18:56:46.556Z,9.10
2019-04-14T18:59:36.196Z,9.10
2019-04-14T19:02:06.433Z,9.20
2019-04-14T19:04:36.269Z,9.20
2019-04-14T19:07:06.260Z,9.20
2019-04-14T19:09:36.054Z,9.10
2019-04-14T19:12:46.584Z,9.20
2019-04-14T19:15:46.090Z,9.20
2019-04-14T19:18:28.757Z,9.20
2019-04-14T19:21:02.112Z,9.10
2019-04-14T19:23:31.988Z,9.10
2019-04-14T19:26:01.837Z,9.10
2019-04-14T19:28:33.290Z,9.10
2019-04-14T19:31:03.190Z,9.10
2019-04-14T19:33:33.213Z,9.10
2019-04-14T19:36:03.211Z,9.10
2019-04-14T19:38:39.752Z,9.10
2019-04-14T19:41:47.477Z,9.10
2019-04-14T19:44:50.651Z,9.10
2019-04-14T19:49:49.519Z,9.00
2019-04-14T19:56:08.673Z,8.90
2019-04-14T19:59:17.080Z,8.90
2019-04-14T20:02:23.793Z,8.90
2019-04-14T20:05:43.134Z,8.90
2019-04-14T20:08:47.051Z,8.80
2019-04-14T20:15:05.169Z,8.70
2019-04-14T20:18:39.486Z,8.60
2019-04-14T20:22:07.098Z,8.50
2019-04-14T20:25:33.221Z,8.50
2019-04-14T20:28:39.246Z,8.40
2019-04-14T20:34:56.449Z,8.50
2019-04-14T20:38:14.859Z,8.50
2019-04-14T20:41:31.935Z,8.50
2019-04-14T20:44:30.162Z,8.40
2019-04-14T20:51:13.955Z,8.40
2019-04-14T20:54:16.737Z,8.40
2019-04-14T20:57:13.848Z,8.40
2019-04-14T21:00:03.719Z,8.40
2019-04-14T21:03:29.188Z,8.40
2019-04-14T21:06:50.339Z,8.40
2019-04-14T21:10:18.804Z,8.40
2019-04-14T21:13:51.564Z,8.50
2019-04-14T21:17:17.059Z,8.40
2019-04-14T21:20:44.084Z,8.40
2019-04-14T21:23:50.275Z,8.40
2019-04-14T21:27:28.296Z,8.40
2019-04-14T21:30:32.646Z,8.40
2019-04-14T21:33:38.747Z,8.30
2019-04-14T21:36:37.295Z,8.40
2019-04-14T21:39:51.386Z,8.40
2019-04-14T21:42:34.222Z,8.30
2019-04-14T21:45:13.434Z,8.30
2019-04-14T21:47:52.579Z,8.30
2019-04-14T21:50:25.764Z,8.20
2019-04-14T21:53:09.789Z,8.20
2019-04-14T21:56:13.801Z,8.20
2019-04-14T21:59:06.535Z,8.20
2019-04-14T22:02:18.986Z,8.10
2019-04-14T22:05:29.139Z,8.20
2019-04-14T22:08:28.180Z,8.10
2019-04-14T22:11:23.426Z,8.10
2019-04-14T22:14:14.267Z,8.10
2019-04-14T22:17:12.550Z,8.00
2019-04-14T22:20:17.044Z,8.10
2019-04-14T22:23:26.804Z,8.00
2019-04-14T22:26:25.979Z,8.00
2019-04-14T22:29:21.098Z,8.00
2019-04-14T22:32:03.262Z,8.00
2019-04-14T22:34:57.803Z,8.00
2019-04-14T22:37:45.095Z,8.00
2019-04-14T22:40:32.571Z,8.10
2019-04-14T22:46:24.135Z,8.10
2019-04-14T22:48:58.822Z,8.10
2019-04-14T22:51:31.705Z,8.10
2019-04-14T22:54:12.168Z,8.10
2019-04-14T22:56:46.186Z,8.10
2019-04-14T22:59:17.143Z,8.20
2019-04-14T23:01:55.832Z,8.20
2019-04-14T23:04:49.955Z,8.20
2019-04-14T23:07:33.867Z,8.20
2019-04-14T23:10:14.584Z,8.30
2019-04-14T23:12:57.936Z,8.30
2019-04-14T23:15:50.744Z,8.30
2019-04-14T23:18:44.129Z,8.30
2019-04-14T23:21:34.442Z,8.40
2019-04-14T23:24:22.783Z,8.40
2019-04-14T23:26:53.379Z,8.40
2019-04-14T23:29:25.675Z,8.40
2019-04-14T23:31:55.714Z,8.40
2019-04-14T23:34:33.343Z,8.40
2019-04-14T23:37:39.634Z,8.40
2019-04-14T23:41:23.143Z,8.40
2019-04-14T23:44:33.906Z,8.30
2019-04-14T23:50:28.564Z,8.00
2019-04-14T23:54:04.579Z,7.90
2019-04-14T23:57:12.261Z,7.90
